Terminal Aerodrome Forecast
Issued by NWS Melbourne, FL

Home | Current Version | Previous Version | Text Only | Print | Product List | Glossary On
Versions: 1 2 3 4 5 6 7 8 9 10 11 12 13 14 15 16 17 18 19 20 21 22 23 24 25 26 27 28
034
FTUS42 KMLB 312331
TAFMCO
TAF
KMCO 312331Z 0100/0124 23011KT P6SM VCSH SCT020 BKN050 BKN110
      TEMPO 0100/0103 VRB12G22KT 5SM SHRA BR BKN015 BKN025
     FM010300 18008KT P6SM VCSH FEW010 SCT040 BKN100
     FM010900 16005KT P6SM VCSH SCT040 OVC100
     FM011500 19011KT P6SM VCSH SCT020 BKN040 OVC100=

USA.gov is the U.S. government's official web portal to all federal, state and local government web resources and services.